東京国際空港の過去48時間の天気

東京国際空港 (Tokyo/Intl)

現在時刻: 10/20 03:38 JST (10/19 18:38 UTC) 以下の時間は現地時間です。

過去48時間のMETAR気象情報
時間 風向 風速(m/s) 視程 気温(℃) 湿度(%) 気圧(hPa) 天気現象
20 03:00 6 10km以上 17 77 1017
20 02:30 7 10km以上 17 77 1017
20 02:00 北北西 6 10km以上 16 82 1017 弱い雨
20 01:30 北北西 7 10km以上 17 77 1017
20 01:00 北北西 6 10km以上 17 77 1018
20 00:30 北北西 6 10km以上 17 83 1018
20 00:00 北北西 6 10km以上 17 77 1018
19 23:30 6 10km以上 18 77 1017
19 23:00 6 10km以上 18 73 1018
19 22:30 6 10km以上 18 77 1018
19 22:00 6 10km以上 18 77 1018 弱いしゅう雨
19 21:30 5 10km以上 18 77 1018
19 21:00 5 10km以上 18 77 1018 弱いしゅう雨
19 20:30 6 10km以上 18 83 1018
19 20:00 6 10km以上 18 83 1018
19 19:30 北北東 6 10km以上 18 77 1017 弱いしゅう雨
19 19:00 北北東 6 10km以上 18 73 1017 弱いしゅう雨
19 18:30 北北東 4 10km以上 18 73 1017 弱いしゅう雨
19 18:00 北北東 5 10km以上 19 73 1017
19 17:30 6 10km以上 19 68 1017 弱いしゅう雨
19 17:00 北北東 5 10km以上 19 68 1017
19 16:30 北北東 5 10km以上 19 68 1017 弱いしゅう雨
19 16:00 北北東 5 10km以上 20 68 1017 弱いしゅう雨
19 15:30 5 10km以上 20 68 1017 周辺でしゅう雨
19 15:00 5 10km以上 20 68 1016
19 14:30 5 10km以上 20 68 1016 周辺でしゅう雨
19 14:00 5 10km以上 20 68 1016 周辺でしゅう雨
19 13:30 6 10km以上 20 68 1016 弱いしゅう雨
19 13:00 6 10km以上 20 68 1016 弱い雨
19 12:30 北北東 6 10km以上 20 68 1016 弱い雨
19 12:00 5 10km以上 19 73 1017
19 11:30 6 10km以上 19 68 1017
19 11:00 5 10km以上 19 73 1018 周辺でしゅう雨
19 10:30 6 10km以上 19 73 1018 弱い雨
19 10:00 6 10km以上 18 73 1018
19 09:30 6 10km以上 18 73 1018
19 09:00 7 10km以上 18 73 1018
19 08:30 7 10km以上 17 72 1018
19 08:00 6 10km以上 17 72 1018
19 07:30 6 10km以上 17 72 1018
19 07:00 6 10km以上 16 72 1018
19 06:30 7 10km以上 16 72 1018
19 06:00 北北西 6 10km以上 16 72 1018
19 05:30 北西 6 10km以上 16 72 1017 弱い雨
19 05:00 北北西 6 10km以上 17 68 1017 弱い雨
19 04:30 北北西 4 10km以上 17 68 1017 周辺でしゅう雨
19 04:00 5 10km以上 17 72 1016 周辺でしゅう雨
19 03:30 北北西 6 10km以上 17 68 1017 弱い雨
19 03:00 8 10km以上 17 72 1016 弱い雨
19 02:30 7 10km以上 17 72 1017 弱い雨
19 02:00 5 10km以上 17 72 1017
19 01:30 7 10km以上 17 72 1016
19 01:00 7 10km以上 17 77 1017
19 00:30 6 10km以上 17 77 1017
19 00:00 7 10km以上 17 77 1017 周辺でしゅう雨
18 23:30 6 10km以上 17 77 1017
18 23:00 北北東 6 10km以上 17 77 1017
18 22:30 北東 6 10km以上 17 83 1017 弱い雨
18 22:00 北北東 7 10km以上 17 77 1017 弱い雨
18 21:30 北東 7 10km以上 18 77 1017
18 21:00 北北東 6 10km以上 18 77 1017
18 20:30 北東 7 10km以上 18 77 1017
18 20:00 北東 7 10km以上 18 77 1017
18 19:30 北北東 7 10km以上 18 77 1017
18 19:00 北北東 7 10km以上 18 77 1017
18 18:30 北東 7 10km以上 18 77 1017
18 18:00 北東 7 10km以上 18 77 1016
18 17:30 北東 7 10km以上 19 73 1016
18 17:00 北東 6 10km以上 19 73 1016
18 16:30 東北東 6 10km以上 19 73 1016
18 16:00 東北東 6 10km以上 20 68 1015
18 15:30 東北東 7 10km以上 20 68 1015
18 15:00 東北東 7 10km以上 20 68 1015
18 14:30 東北東 8 10km以上 20 73 1015
18 14:00 東北東 7 10km以上 20 68 1015
18 13:30 東北東 8 10km以上 20 68 1015
18 13:00 北東 5 10km以上 21 64 1015
18 12:30 北東 6 10km以上 21 64 1015
18 12:00 北東 4 10km以上 21 60 1015
18 11:30 東北東 5 10km以上 20 60 1016
18 11:00 北東 5 10km以上 20 64 1015
18 10:30 北北東 6 10km以上 19 68 1016
18 10:00 北北東 6 10km以上 19 68 1016
18 09:30 北北東 6 10km以上 18 73 1016
18 09:00 北北東 6 10km以上 18 68 1016
18 08:30 北北東 7 10km以上 18 73 1016
18 08:00 7 10km以上 17 72 1016
18 07:30 北北東 7 10km以上 17 72 1016
18 07:00 6 10km以上 17 72 1016
18 06:30 7 10km以上 17 77 1015
18 06:00 6 10km以上 17 72 1015
18 05:30 6 10km以上 17 72 1015
18 05:00 北北東 6 10km以上 17 72 1015
18 04:30 6 10km以上 17 72 1015
18 04:00 6 10km以上 17 72 1015
RJTT 191800Z 36012KT 9999 FEW020 BKN100 BKN/// 17/13 Q1017 NOSIG RMK 1CU020 5AC100 A3004
RJTT 191730Z 36014KT 9999 FEW020 BKN100 BKN/// 17/13 Q1017 NOSIG
RJTT 191700Z 34012KT 9999 -RA FEW015 SCT040 BKN100 16/13 Q1017 NOSIG RMK 1CU015 3SC040 7AC100 A3005
RJTT 191630Z 34013KT 9999 FEW020 SCT100 BKN/// 17/13 Q1017 NOSIG
RJTT 191600Z 34011KT 9999 FEW020 SCT100 BKN/// 17/13 Q1018 NOSIG RMK 1CU020 3AC100 A3006
RJTT 191530Z 34011KT 9999 FEW020 BKN100 BKN/// 17/14 Q1018 NOSIG
RJTT 191500Z 34011KT 9999 FEW020 SCT100 BKN/// 17/13 Q1018 NOSIG RMK 1CU020 3AC100 A3006
RJTT 191430Z 35012KT 9999 FEW020 BKN/// 18/14 Q1017 NOSIG
RJTT 191400Z 36012KT 9999 FEW020 SCT100 BKN/// 18/13 Q1018 NOSIG RMK 1CU020 4AC100 A3006
RJTT 191330Z 35012KT 9999 FEW015 BKN100 18/14 Q1018 NOSIG RMK 1CU015 6AC100 A3007
RJTT 191300Z 35011KT 9999 -SHRA FEW015 SCT040 BKN100 18/14 Q1018 NOSIG RMK 1CU015 4CU040 6AC100 A3008
RJTT 191230Z 35010KT 9999 FEW010 BKN050 BKN130 18/14 Q1018 NOSIG RMK 1ST010 6SC050 7AC130 A3009
RJTT 191200Z 35010KT 9999 -SHRA FEW010 BKN045 BKN090 18/14 Q1018 NOSIG RMK 1ST010 6CU045 7AC090 A3009
RJTT 191130Z 01012KT 9999 FEW015 BKN100 18/15 Q1018 NOSIG RMK 1CU015 7AC100 A3008
RJTT 191100Z 01012KT 9999 FEW015 BKN100 18/15 Q1018 NOSIG RMK 1CU015 7AC100 A3006
RJTT 191030Z 02011KT 9999 -SHRA FEW015 BKN100 18/14 Q1017 NOSIG RMK 1CU015 7AC100 A3006
RJTT 191000Z 02011KT 9999 -SHRA FEW015 BKN090 18/13 Q1017 NOSIG RMK 1CU015 7AC090 A3005
RJTT 190930Z 02008KT 9999 -SHRA FEW015 BKN090 18/13 Q1017 NOSIG RMK 1CU015 7AC090 A3005
RJTT 190900Z 03009KT 9999 FEW015 BKN090 19/14 Q1017 NOSIG RMK 1CU015 7AC090 A3004
RJTT 190830Z 01011KT 9999 -SHRA FEW020 BKN090 19/13 Q1017 NOSIG RMK 2CU020 7AC090 A3004
RJTT 190800Z 03010KT 9999 FEW020 BKN090 BKN110 19/13 Q1017 NOSIG RMK 1CU020 5AC090 7AC110 A3004
RJTT 190730Z 03009KT 9999 -SHRA FEW020 BKN045 BKN100 19/13 Q1017 NOSIG RMK 1CU020 5CU045 7AC100 A3004
RJTT 190700Z 03010KT 9999 -SHRA FEW025 BKN045 BKN100 20/14 Q1017 NOSIG RMK 1CU025 5CU045 6AC100 A3004
RJTT 190630Z 01010KT 9999 VCSH FEW020 BKN035 BKN045 20/14 Q1017 NOSIG RMK 1CU020 5CU035 6SC045 A3003
RJTT 190600Z 36009KT 9999 FEW020 BKN030 BKN040 20/14 Q1016 NOSIG RMK 1CU020 5CU030 6CU040 A3003
RJTT 190530Z 36010KT 9999 VCSH FEW020 BKN030 BKN040 20/14 Q1016 NOSIG RMK 1CU020 5CU030 7CU040 A3002
RJTT 190500Z 36010KT 9999 VCSH FEW020 SCT040 BKN100 20/14 Q1016 NOSIG RMK 1CU020 3CU040 7AC100 A3001
RJTT 190430Z 36011KT 9999 -SHRA FEW020 SCT030 BKN100 20/14 Q1016 NOSIG RMK 1CU020 3CU030 7AC100 A3002
RJTT 190400Z 36012KT 9999 -RA FEW020 BKN100 20/14 Q1016 NOSIG RMK 1CU020 7AC100 A3002
RJTT 190330Z 02012KT 9999 -RA FEW020 BKN100 20/14 Q1016 NOSIG RMK 1CU020 7AC100 A3003
RJTT 190300Z 36010KT 330V030 9999 FEW030 BKN100 19/14 Q1017 NOSIG RMK 1CU030 7AC100 A3004
RJTT 190230Z 35011KT 9999 FEW020 BKN110 19/13 Q1017 NOSIG RMK 1CU020 7AC110 A3005
RJTT 190200Z 36010KT 9999 VCSH FEW020 BKN110 19/14 Q1018 NOSIG RMK 1CU020 6AC110 A3006
RJTT 190130Z 36012KT 9999 -RA FEW020 BKN110 19/14 Q1018 NOSIG RMK 1CU020 6AC110 A3007
RJTT 190100Z 35011KT 9999 FEW020 BKN120 18/13 Q1018 NOSIG RMK 1CU020 6AC120 A3008
RJTT 190030Z 01012KT 9999 FEW020 BKN100 BKN140 18/13 Q1018 NOSIG RMK 1CU020 5AC100 6AC140 A3007
RJTT 190000Z 36013KT 9999 FEW015 BKN100 BKN140 18/13 Q1018 NOSIG RMK 1CU015 5AC100 6AC140 A3008
RJTT 182330Z 36013KT 9999 FEW020 SCT100 BKN140 17/12 Q1018 NOSIG RMK 1SC020 4AC100 6AC140 A3008
RJTT 182300Z 35012KT 9999 FEW020 BKN110 BKN140 17/12 Q1018 NOSIG RMK 1SC020 5AC110 6AC140 A3008
RJTT 182230Z 36012KT 9999 FEW020 BKN110 BKN140 17/12 Q1018 NOSIG RMK 1CU020 5AC110 6AC140 A3007
RJTT 182200Z 35012KT 9999 FEW020 BKN110 16/11 Q1018 NOSIG RMK 1CU020 7AC110 A3007
RJTT 182130Z 35014KT 9999 FEW020 SCT060 BKN110 16/11 Q1018 NOSIG RMK 1CU020 3SC060 7AC110 A3007
RJTT 182100Z 33011KT 9999 FEW020 BKN060 BKN110 16/11 Q1018 NOSIG RMK 1CU020 5SC060 7AC110 A3007
RJTT 182030Z 32012KT 9999 -RA FEW020 BKN050 BKN110 16/11 Q1017 NOSIG RMK 1CU020 5SC050 7AC110 A3005
RJTT 182000Z 34011KT 9999 -RA FEW020 BKN050 BKN100 17/11 Q1017 NOSIG RMK 1CU020 5SC050 7AC100 A3005
RJTT 181930Z 33007KT 9999 VCSH FEW030 BKN050 17/11 Q1017 NOSIG RMK 1CU030 7SC050 A3005
RJTT 181900Z 36010KT 9999 VCSH FEW030 BKN050 17/12 Q1016 NOSIG RMK 1CU030 7SC050 A3003
RJTT 181830Z 34011KT 9999 -RA FEW030 BKN050 17/11 Q1017 NOSIG RMK 1CU030 7SC050 A3003
RJTT 181800Z 01015KT 9999 -RA FEW030 BKN050 17/12 Q1016 NOSIG RMK 1CU030 7SC050 A3002
RJTT 181730Z 35013KT 9999 -RA FEW030 BKN045 17/12 Q1017 NOSIG RMK 1CU030 7SC045 A3004
RJTT 181700Z 01010KT 9999 FEW030 BKN045 17/12 Q1017 NOSIG RMK 1CU030 7SC045 A3005
RJTT 181630Z 36013KT 9999 FEW030 BKN045 17/12 Q1016 NOSIG RMK 1CU030 7SC045 A3003
RJTT 181600Z 36013KT 9999 FEW030 BKN045 17/13 Q1017 NOSIG RMK 1CU030 7SC045 A3003
RJTT 181530Z 36012KT 9999 FEW030 BKN045 17/13 Q1017 NOSIG RMK 1CU030 7SC045 A3004
RJTT 181500Z 01014KT 9999 VCSH FEW030 SCT035 BKN045 17/13 Q1017 NOSIG RMK 1CU030 3SC035 7SC045 A3003
RJTT 181430Z 01012KT 9999 FEW025 SCT035 BKN040 17/13 Q1017 NOSIG RMK 1CU025 3SC035 7SC040 A3005
RJTT 181400Z 03012KT 9999 FEW020 SCT035 BKN040 17/13 Q1017 NOSIG RMK 1CU020 3SC035 7SC040 A3004
RJTT 181330Z 04012KT 9999 -RA FEW020 SCT030 BKN040 17/14 Q1017 NOSIG RMK 1CU020 3SC030 7SC040 A3004
RJTT 181300Z 03013KT 9999 -RA FEW020 SCT030 BKN040 17/13 Q1017 NOSIG RMK 1CU020 3SC030 7SC040 A3005
RJTT 181230Z 04013KT 9999 FEW020 SCT030 BKN040 18/14 Q1017 WS R34L NOSIG
RJTT 181200Z 03012KT 9999 FEW020 BKN035 18/14 Q1017 NOSIG RMK 1CU020 7SC035 A3006
RJTT 181130Z 04013KT 9999 FEW020 BKN040 18/14 Q1017 NOSIG RMK 1CU020 6SC040 A3005
RJTT 181100Z 04013KT 9999 FEW020 BKN040 18/14 Q1017 NOSIG RMK 1CU020 5SC040 A3005
RJTT 181030Z 03014KT 9999 FEW020 BKN040 18/14 Q1017 NOSIG RMK 1CU020 5SC040 A3005
RJTT 181000Z 03013KT 9999 FEW020 BKN035 18/14 Q1017 NOSIG RMK 1CU020 6SC035 A3005
RJTT 180930Z 04014KT 9999 FEW020 BKN180 18/14 Q1017 NOSIG RMK 1CU020 5AC180 A3004
RJTT 180900Z 05014KT 9999 FEW020 SCT180 18/14 Q1016 NOSIG RMK 1CU020 3AC180 A3003
RJTT 180830Z 05013KT 9999 FEW020 19/14 Q1016 NOSIG RMK 1CU020 A3001
RJTT 180800Z 05012KT 9999 FEW020 19/14 Q1016 NOSIG RMK 1CU020 A3001
RJTT 180730Z 06012KT 9999 FEW020 19/14 Q1016 BECMG TL0900 04014KT
RJTT 180700Z 06012KT 9999 FEW025 SCT100 20/14 Q1015 BECMG 04014KT
RJTT 180630Z 07013KT 9999 FEW025 20/14 Q1015 NOSIG RMK 1CU025 A3000
RJTT 180600Z 07014KT 9999 FEW025 SCT050 20/14 Q1015 NOSIG RMK 1CU025 4SC050 A2998
RJTT 180530Z 07015KT 9999 FEW025 BKN050 BKN100 20/15 Q1015 NOSIG RMK 1CU025 5SC050 6AC100 A2998
RJTT 180500Z 07014KT 9999 FEW030 BKN050 20/14 Q1015 NOSIG RMK 1CU030 6SC050 A2997 MOD TURB OBS AT 0435Z 10NM SW ADDUM BTN 12000FT AND 11000FT BY A321
RJTT 180430Z 07015KT 9999 FEW030 BKN045 BKN/// 20/14 Q1015 NOSIG
RJTT 180400Z 05010KT 9999 FEW030 BKN045 BKN/// 21/14 Q1015 NOSIG RMK 1CU030 5SC045 A2997
RJTT 180330Z 05011KT 9999 FEW030 SCT040 BKN090 21/14 Q1015 NOSIG RMK 1CU030 4SC040 6AC090 A2998
RJTT 180300Z 04007KT 350V060 9999 FEW025 SCT035 BKN100 21/13 Q1015 NOSIG RMK 1CU025 3CU035 5AC100 A3000
RJTT 180230Z 06009KT 9999 FEW025 SCT/// 20/12 Q1016 NOSIG RMK 1CU025 A3000
RJTT 180200Z 04009KT 9999 FEW020 SCT/// 20/13 Q1015 NOSIG RMK 1CU020 A3000
RJTT 180130Z 03012KT 9999 FEW020 SCT180 19/13 Q1016 NOSIG RMK 1CU020 3AC180 A3000
RJTT 180100Z 02011KT 9999 FEW020 BKN090 19/13 Q1016 NOSIG RMK 1CU020 5AC090 A3002
RJTT 180030Z 02011KT 9999 FEW020 BKN100 18/13 Q1016 NOSIG RMK 1CU020 6AC100 A3002
RJTT 180000Z 02012KT 9999 FEW020 BKN100 18/12 Q1016 NOSIG RMK 1CU020 5AC100 A3002
RJTT 172330Z 02013KT 9999 FEW020 BKN100 18/13 Q1016 NOSIG RMK 1CU020 5AC100 A3001
RJTT 172300Z 01014KT 9999 FEW020 SCT100 17/12 Q1016 NOSIG RMK 1CU020 3AC100 A3002
RJTT 172230Z 02013KT 9999 FEW020 SCT100 17/12 Q1016 NOSIG RMK 1CU020 3AC100 A3001
RJTT 172200Z 01012KT 9999 FEW020 BKN100 17/12 Q1016 NOSIG RMK 1CU020 5AC100 A3001
RJTT 172130Z 01013KT 9999 FEW020 SCT090 17/13 Q1015 NOSIG RMK 1CU020 3AC090 A3000
RJTT 172100Z 01012KT 9999 FEW020 17/12 Q1015 NOSIG RMK 1CU020 A2999
RJTT 172030Z 01011KT 9999 FEW020 17/12 Q1015 NOSIG RMK 1CU020 A2999
RJTT 172000Z 02012KT 9999 FEW015 17/12 Q1015 NOSIG RMK 1CU015 A2998
RJTT 171930Z 01012KT 9999 FEW015 17/12 Q1015 NOSIG RMK 1CU015 A2997
RJTT 171900Z 01011KT 9999 FEW015 17/12 Q1015 NOSIG RMK 1CU015 A2997